createdAt,value
2018-12-16T00:00:17.134Z,73.71
2018-12-16T00:02:43.360Z,73.78
2018-12-16T00:05:09.686Z,73.52
2018-12-16T00:07:35.744Z,73.73
2018-12-16T00:10:01.844Z,73.49
2018-12-16T00:12:28.082Z,73.66
2018-12-16T00:14:54.159Z,73.85
2018-12-16T00:17:20.268Z,73.72
2018-12-16T00:19:46.513Z,73.83
2018-12-16T00:22:12.564Z,73.64
2018-12-16T00:24:38.642Z,73.69
2018-12-16T00:27:08.219Z,73.74
2018-12-16T00:29:34.274Z,73.82
2018-12-16T00:32:00.335Z,73.76
2018-12-16T00:34:26.787Z,73.68
2018-12-16T00:36:52.957Z,73.75
2018-12-16T00:39:19.028Z,73.80
2018-12-16T00:41:45.250Z,74.12
2018-12-16T00:44:11.281Z,73.86
2018-12-16T00:46:37.327Z,73.92
2018-12-16T00:49:03.527Z,73.89
2018-12-16T00:51:29.573Z,74.17
2018-12-16T00:53:55.643Z,73.97
2018-12-16T00:56:21.844Z,73.84
2018-12-16T00:58:47.907Z,74.00
2018-12-16T01:01:13.968Z,73.99
2018-12-16T01:03:40.384Z,73.97
2018-12-16T01:06:06.548Z,73.89
2018-12-16T01:08:32.615Z,73.95
2018-12-16T01:10:58.840Z,74.06
2018-12-16T01:13:24.948Z,74.03
2018-12-16T01:15:50.981Z,74.15
2018-12-16T01:18:17.330Z,73.84
2018-12-16T01:20:43.432Z,73.84
2018-12-16T01:23:09.557Z,74.00
2018-12-16T01:25:35.896Z,74.11
2018-12-16T01:28:01.979Z,74.10
2018-12-16T01:30:28.095Z,73.91
2018-12-16T01:32:54.379Z,74.02
2018-12-16T01:35:20.433Z,73.97
2018-12-16T01:37:46.916Z,74.15
2018-12-16T01:40:13.346Z,74.03
2018-12-16T01:42:39.527Z,73.99
2018-12-16T01:45:05.711Z,74.17
2018-12-16T01:47:31.959Z,73.95
2018-12-16T01:49:58.024Z,74.08
2018-12-16T01:52:24.100Z,74.00
2018-12-16T01:54:50.376Z,74.08
2018-12-16T01:57:16.445Z,74.17
2018-12-16T01:59:42.540Z,74.11
2018-12-16T02:02:08.853Z,74.14
2018-12-16T02:04:34.946Z,74.00
2018-12-16T02:07:01.042Z,74.07
2018-12-16T02:09:27.372Z,74.15
2018-12-16T02:11:53.448Z,74.20
2018-12-16T02:14:19.481Z,74.14
2018-12-16T02:16:45.803Z,74.07
2018-12-16T02:19:11.859Z,74.16
2018-12-16T02:21:37.911Z,74.11
2018-12-16T02:24:04.204Z,74.07
2018-12-16T02:26:30.320Z,74.18
2018-12-16T02:28:56.432Z,73.94
2018-12-16T02:31:22.765Z,74.16
2018-12-16T02:33:48.847Z,74.04
2018-12-16T02:36:14.899Z,74.01
2018-12-16T02:38:41.256Z,74.16
2018-12-16T02:41:07.334Z,73.98
2018-12-16T02:43:33.372Z,74.00
2018-12-16T02:45:59.829Z,74.12
2018-12-16T02:48:25.904Z,74.28
2018-12-16T02:50:52.166Z,74.29
2018-12-16T02:53:18.457Z,74.21
2018-12-16T02:55:44.509Z,74.12
2018-12-16T02:58:10.572Z,74.16
2018-12-16T03:00:36.708Z,74.11
2018-12-16T03:03:03.008Z,74.23
2018-12-16T03:05:29.068Z,74.25
2018-12-16T03:07:55.376Z,74.14
2018-12-16T03:10:21.418Z,74.37
2018-12-16T03:12:47.518Z,74.30
2018-12-16T03:15:13.698Z,74.23
2018-12-16T03:17:39.742Z,74.33
2018-12-16T03:20:06.040Z,74.37
2018-12-16T03:22:32.382Z,74.18
2018-12-16T03:24:58.419Z,74.39
2018-12-16T03:27:24.815Z,74.37
2018-12-16T03:29:51.132Z,74.28
2018-12-16T03:32:17.240Z,74.27
2018-12-16T03:34:43.315Z,74.23
2018-12-16T03:37:09.503Z,74.42
2018-12-16T03:39:35.568Z,74.46
2018-12-16T03:42:01.863Z,74.36
2018-12-16T03:44:28.169Z,74.23
2018-12-16T03:46:54.254Z,74.25
2018-12-16T03:49:20.313Z,74.33
2018-12-16T03:51:46.577Z,74.23
2018-12-16T03:54:12.648Z,74.32
2018-12-16T03:56:38.743Z,74.32
2018-12-16T03:59:13.894Z,74.34
2018-12-16T04:01:40.006Z,74.26
2018-12-16T04:04:06.054Z,74.29
2018-12-16T04:06:32.249Z,74.42
2018-12-16T04:08:58.400Z,74.34
2018-12-16T04:11:24.479Z,74.34
2018-12-16T04:13:50.680Z,74.43
2018-12-16T04:16:16.761Z,74.44
2018-12-16T04:18:42.821Z,74.46
2018-12-16T04:21:09.043Z,74.52
2018-12-16T04:23:35.145Z,74.40
2018-12-16T04:26:01.197Z,74.49
2018-12-16T04:28:27.645Z,74.40
2018-12-16T04:30:53.658Z,74.45
2018-12-16T04:33:20.008Z,74.45
2018-12-16T04:35:46.285Z,74.47
2018-12-16T04:38:12.418Z,74.35
2018-12-16T04:40:45.360Z,74.53
2018-12-16T04:43:11.663Z,74.49
2018-12-16T04:45:37.692Z,74.37
2018-12-16T04:48:03.759Z,74.49
2018-12-16T04:50:29.972Z,74.41
2018-12-16T04:52:56.071Z,74.47
2018-12-16T04:55:22.217Z,74.55
2018-12-16T04:57:48.422Z,74.54
2018-12-16T05:00:14.468Z,74.48
2018-12-16T05:02:40.558Z,74.63
2018-12-16T05:05:06.904Z,74.67
2018-12-16T05:07:32.979Z,74.67
2018-12-16T05:10:11.333Z,74.46
2018-12-16T05:12:37.367Z,74.68
2018-12-16T05:15:03.752Z,74.68
2018-12-16T05:17:30.026Z,74.69
2018-12-16T05:19:56.048Z,74.81
2018-12-16T05:22:22.196Z,74.53
2018-12-16T05:24:48.309Z,74.61
2018-12-16T05:27:14.353Z,74.75
2018-12-16T05:29:40.444Z,74.64
2018-12-16T05:32:06.700Z,74.64
2018-12-16T05:34:32.773Z,74.70
2018-12-16T05:36:58.846Z,74.69
2018-12-16T05:39:25.406Z,74.63
2018-12-16T05:41:51.462Z,74.61
2018-12-16T05:44:17.555Z,74.72
2018-12-16T05:46:43.753Z,74.57
2018-12-16T05:49:09.775Z,74.69
2018-12-16T05:51:35.828Z,74.60
2018-12-16T05:54:02.130Z,74.71
2018-12-16T05:56:28.206Z,74.64
2018-12-16T05:58:54.240Z,74.50
2018-12-16T06:01:20.561Z,74.71
2018-12-16T06:03:46.703Z,74.64
2018-12-16T06:06:12.809Z,74.78
2018-12-16T06:08:39.031Z,74.70
2018-12-16T06:11:05.074Z,74.74
2018-12-16T06:13:34.110Z,74.76
2018-12-16T06:16:00.365Z,74.74
2018-12-16T06:18:26.386Z,75.01
2018-12-16T06:20:52.454Z,74.85
2018-12-16T06:23:18.768Z,75.07
2018-12-16T06:25:44.890Z,74.98
2018-12-16T06:28:10.968Z,74.97
2018-12-16T06:30:37.552Z,74.94
2018-12-16T06:33:03.671Z,75.08
2018-12-16T06:35:29.768Z,75.15
2018-12-16T06:37:56.105Z,75.15
2018-12-16T06:40:22.148Z,74.71
2018-12-16T06:42:48.259Z,75.19
2018-12-16T06:45:14.599Z,75.15
2018-12-16T06:47:40.673Z,75.22
2018-12-16T06:50:06.864Z,75.23
2018-12-16T06:52:33.158Z,75.27
2018-12-16T06:54:59.251Z,75.32
2018-12-16T06:57:25.274Z,75.30
2018-12-16T06:59:51.596Z,75.33
2018-12-16T07:02:17.660Z,75.31
2018-12-16T07:04:43.700Z,75.55
2018-12-16T07:10:03.635Z,75.46
2018-12-16T07:12:29.780Z,75.44
2018-12-16T07:14:55.807Z,75.46
2018-12-16T07:17:21.891Z,75.64
2018-12-16T07:19:48.157Z,75.40
2018-12-16T07:22:14.237Z,75.62
2018-12-16T07:24:40.440Z,75.77
2018-12-16T07:27:06.805Z,75.56
2018-12-16T07:29:32.832Z,75.76
2018-12-16T07:31:58.891Z,75.85
2018-12-16T07:34:25.344Z,75.79
2018-12-16T07:36:51.393Z,76.20
2018-12-16T07:39:17.440Z,76.05
2018-12-16T07:41:43.691Z,76.15
2018-12-16T07:44:16.732Z,76.14
2018-12-16T07:46:42.774Z,76.08
2018-12-16T07:49:09.024Z,76.50
2018-12-16T07:51:35.120Z,76.35
2018-12-16T07:54:01.258Z,76.43
2018-12-16T07:56:27.562Z,76.41
2018-12-16T07:58:53.653Z,76.54
2018-12-16T08:01:19.889Z,76.75
2018-12-16T08:03:46.264Z,76.73
2018-12-16T08:06:19.415Z,76.85
2018-12-16T08:08:45.452Z,76.71
2018-12-16T08:11:11.738Z,76.72
2018-12-16T08:13:37.809Z,76.79
2018-12-16T08:16:03.893Z,77.00
2018-12-16T08:18:30.141Z,77.04
2018-12-16T08:20:56.182Z,77.07
2018-12-16T08:23:22.352Z,77.14
2018-12-16T08:25:48.640Z,77.13
2018-12-16T08:28:14.726Z,77.22
2018-12-16T08:30:40.801Z,77.33
2018-12-16T08:33:07.012Z,77.28
2018-12-16T08:35:33.078Z,77.21
2018-12-16T08:37:59.140Z,77.29
2018-12-16T08:40:25.420Z,77.41
2018-12-16T08:42:51.444Z,77.44
2018-12-16T08:45:17.482Z,77.51
2018-12-16T08:47:43.714Z,77.46
2018-12-16T08:50:09.807Z,77.46
2018-12-16T08:52:35.870Z,77.46
2018-12-16T08:55:02.146Z,77.57
2018-12-16T08:57:28.178Z,77.42
2018-12-16T08:59:54.165Z,77.82
2018-12-16T09:04:53.007Z,77.67
2018-12-16T09:07:19.199Z,77.83
2018-12-16T09:09:45.471Z,77.76
2018-12-16T09:12:11.518Z,77.66
2018-12-16T09:14:37.572Z,77.82
2018-12-16T09:17:03.881Z,77.82
2018-12-16T09:19:29.928Z,77.81
2018-12-16T09:21:56.005Z,77.65
2018-12-16T09:24:22.240Z,77.71
2018-12-16T09:26:48.300Z,77.72
2018-12-16T09:29:14.368Z,77.67
2018-12-16T09:31:40.546Z,77.79
2018-12-16T09:34:06.574Z,77.63
2018-12-16T09:36:32.648Z,77.81
2018-12-16T09:38:58.945Z,77.69
2018-12-16T09:41:25.021Z,77.84
2018-12-16T09:43:51.065Z,77.79
2018-12-16T09:46:17.192Z,77.76
2018-12-16T09:48:43.220Z,77.87
2018-12-16T09:51:09.233Z,77.74
2018-12-16T09:53:35.490Z,77.81
2018-12-16T09:56:01.565Z,77.75
2018-12-16T09:58:27.604Z,77.96
2018-12-16T10:00:53.813Z,77.82
2018-12-16T10:03:19.843Z,77.62
2018-12-16T10:05:45.916Z,77.70
2018-12-16T10:08:12.136Z,77.82
2018-12-16T10:10:38.311Z,77.79
2018-12-16T10:13:04.616Z,77.68
2018-12-16T10:15:30.761Z,77.81
2018-12-16T10:17:56.832Z,77.82
2018-12-16T10:20:22.887Z,77.70
2018-12-16T10:22:49.019Z,77.84
2018-12-16T10:25:15.098Z,77.56
2018-12-16T10:27:41.120Z,77.44
2018-12-16T10:30:07.788Z,77.46
2018-12-16T10:32:33.777Z,77.61
2018-12-16T10:34:59.808Z,77.34
2018-12-16T10:37:26.040Z,77.56
2018-12-16T10:39:52.165Z,77.36
2018-12-16T10:42:18.216Z,77.47
2018-12-16T10:44:44.363Z,77.50
2018-12-16T10:47:10.384Z,77.31
2018-12-16T10:49:36.467Z,77.27
2018-12-16T10:52:02.656Z,77.25
2018-12-16T10:54:28.721Z,77.19
2018-12-16T10:56:54.717Z,77.18
2018-12-16T10:59:20.894Z,77.34
2018-12-16T11:01:46.959Z,77.04
2018-12-16T11:04:13.004Z,77.11
2018-12-16T11:06:39.254Z,76.97
2018-12-16T11:09:05.433Z,76.97
2018-12-16T11:11:31.524Z,76.92
2018-12-16T11:13:57.905Z,76.97
2018-12-16T11:16:24.085Z,76.71
2018-12-16T11:18:50.090Z,76.71
2018-12-16T11:21:16.365Z,76.49
2018-12-16T11:23:42.436Z,76.54
2018-12-16T11:26:08.470Z,76.43
2018-12-16T11:28:34.703Z,76.50
2018-12-16T11:31:00.762Z,76.64
2018-12-16T11:33:26.801Z,76.46
2018-12-16T11:35:52.943Z,76.45
2018-12-16T11:38:19.007Z,76.56
2018-12-16T11:40:45.031Z,76.47
2018-12-16T11:43:11.264Z,76.41
2018-12-16T11:45:37.293Z,76.30
2018-12-16T11:48:03.487Z,76.21
2018-12-16T11:50:29.848Z,75.99
2018-12-16T11:52:55.850Z,76.22
2018-12-16T11:55:21.875Z,76.06
2018-12-16T11:57:48.211Z,75.98
2018-12-16T12:00:14.298Z,75.96
2018-12-16T12:02:40.331Z,75.89
2018-12-16T12:05:06.814Z,75.79
2018-12-16T12:10:27.706Z,75.84
2018-12-16T12:12:53.833Z,76.05
2018-12-16T12:15:19.984Z,76.12
2018-12-16T12:17:46.327Z,76.16
2018-12-16T12:20:12.455Z,76.00
2018-12-16T12:22:38.532Z,75.83
2018-12-16T12:25:05.058Z,75.83
2018-12-16T12:30:04.806Z,75.83
2018-12-16T12:32:31.004Z,75.84
2018-12-16T12:34:57.075Z,75.93
2018-12-16T12:37:23.160Z,76.15
2018-12-16T12:39:49.551Z,76.01
2018-12-16T12:42:15.683Z,76.03
2018-12-16T12:44:41.739Z,76.06
2018-12-16T12:47:07.961Z,75.89
2018-12-16T12:49:34.009Z,75.76
2018-12-16T12:54:55.830Z,75.63
2018-12-16T12:57:22.068Z,75.64
2018-12-16T12:59:48.143Z,75.63
2018-12-16T13:02:14.147Z,75.65
2018-12-16T13:04:40.290Z,75.64
2018-12-16T13:07:06.337Z,75.61
2018-12-16T13:09:32.530Z,75.82
2018-12-16T13:11:58.664Z,75.62
2018-12-16T13:14:24.677Z,75.77
2018-12-16T13:16:50.749Z,75.75
2018-12-16T13:19:17.081Z,75.71
2018-12-16T13:21:43.110Z,75.76
2018-12-16T13:24:09.160Z,75.87
2018-12-16T13:29:27.998Z,75.69
2018-12-16T13:31:54.237Z,75.72
2018-12-16T13:34:20.273Z,75.85
2018-12-16T13:36:47.839Z,75.95
2018-12-16T13:39:14.340Z,75.93
2018-12-16T13:41:40.369Z,75.81
2018-12-16T13:44:06.453Z,75.91
2018-12-16T13:46:32.853Z,75.86
2018-12-16T13:48:58.857Z,75.87
2018-12-16T13:51:24.887Z,75.86
2018-12-16T13:53:51.120Z,75.82
2018-12-16T13:56:17.166Z,75.58
2018-12-16T14:01:39.002Z,75.75
2018-12-16T14:04:05.216Z,75.61
2018-12-16T14:06:31.260Z,75.64
2018-12-16T14:08:57.312Z,75.77
2018-12-16T14:11:23.617Z,75.80
2018-12-16T14:13:49.693Z,75.54
2018-12-16T14:16:15.723Z,75.60
2018-12-16T14:18:42.021Z,75.76
2018-12-16T14:21:08.031Z,75.70
2018-12-16T14:23:34.065Z,75.60
2018-12-16T14:26:00.234Z,75.53
2018-12-16T14:28:26.289Z,75.47
2018-12-16T14:30:52.382Z,75.61
2018-12-16T14:33:18.590Z,75.57
2018-12-16T14:35:45.043Z,75.54
2018-12-16T14:38:11.451Z,75.48
2018-12-16T14:40:37.671Z,75.33
2018-12-16T14:45:59.996Z,75.36
2018-12-16T14:48:26.104Z,75.47
2018-12-16T14:50:52.121Z,75.41
2018-12-16T14:53:18.467Z,75.39
2018-12-16T14:55:44.554Z,75.38
2018-12-16T14:58:10.586Z,75.62
2018-12-16T15:00:36.949Z,75.28
2018-12-16T15:03:03.009Z,75.47
2018-12-16T15:08:58.086Z,75.38
2018-12-16T15:11:24.103Z,75.62
2018-12-16T15:13:50.319Z,75.53
2018-12-16T15:16:16.346Z,75.52
2018-12-16T15:18:42.400Z,75.69
2018-12-16T15:21:08.568Z,75.72
2018-12-16T15:23:34.630Z,75.62
2018-12-16T15:26:02.177Z,75.63
2018-12-16T15:28:28.689Z,75.72
2018-12-16T15:30:54.739Z,75.84
2018-12-16T15:33:20.759Z,75.56
2018-12-16T15:35:46.967Z,75.75
2018-12-16T15:38:12.976Z,75.88
2018-12-16T15:40:39.027Z,75.80
2018-12-16T15:43:05.237Z,75.79
2018-12-16T15:45:31.295Z,75.88
2018-12-16T15:47:57.364Z,75.85
2018-12-16T15:50:24.420Z,75.79
2018-12-16T15:52:50.445Z,75.72
2018-12-16T15:55:16.545Z,75.98
2018-12-16T15:57:42.931Z,76.07
2018-12-16T16:00:09.188Z,76.14
2018-12-16T16:02:35.466Z,76.02
2018-12-16T16:05:01.845Z,76.01
2018-12-16T16:07:27.941Z,76.16
2018-12-16T16:09:54.017Z,76.39
2018-12-16T16:12:20.377Z,76.06
2018-12-16T16:14:46.546Z,76.28
2018-12-16T16:17:12.629Z,76.15
2018-12-16T16:19:38.917Z,76.33
2018-12-16T16:22:05.034Z,76.29
2018-12-16T16:24:31.092Z,76.40
2018-12-16T16:26:57.374Z,76.58
2018-12-16T16:29:23.357Z,76.34
2018-12-16T16:31:49.373Z,76.65
2018-12-16T16:34:15.607Z,76.62
2018-12-16T16:36:41.605Z,76.71
2018-12-16T16:39:07.664Z,76.75
2018-12-16T16:41:34.036Z,76.74
2018-12-16T16:44:00.074Z,76.86
2018-12-16T16:46:26.145Z,76.68
2018-12-16T16:48:52.259Z,76.99
2018-12-16T16:51:18.339Z,76.85
2018-12-16T16:53:44.585Z,76.97
2018-12-16T16:56:10.714Z,77.08
2018-12-16T16:58:36.756Z,77.07
2018-12-16T17:01:03.798Z,77.20
2018-12-16T17:03:30.192Z,77.18
2018-12-16T17:05:56.208Z,77.29
2018-12-16T17:08:22.307Z,77.24
2018-12-16T17:10:48.538Z,77.41
2018-12-16T17:13:14.617Z,77.51
2018-12-16T17:15:40.669Z,77.36
2018-12-16T17:18:06.913Z,77.50
2018-12-16T17:20:32.981Z,77.41
2018-12-16T17:22:59.083Z,77.60
2018-12-16T17:25:25.255Z,77.47
2018-12-16T17:27:51.329Z,77.53
2018-12-16T17:30:17.424Z,77.77
2018-12-16T17:32:43.712Z,77.56
2018-12-16T17:35:09.777Z,77.65
2018-12-16T17:37:35.942Z,77.60
2018-12-16T17:40:02.357Z,77.74
2018-12-16T17:42:28.432Z,77.84
2018-12-16T17:44:54.648Z,77.92
2018-12-16T17:47:21.017Z,77.84
2018-12-16T17:49:47.057Z,77.99
2018-12-16T17:52:13.153Z,77.94
2018-12-16T17:54:39.347Z,77.88
2018-12-16T17:57:05.429Z,78.01
2018-12-16T17:59:31.516Z,78.00
2018-12-16T18:01:57.872Z,78.12
2018-12-16T18:04:24.103Z,78.03
2018-12-16T18:06:50.162Z,78.11
2018-12-16T18:09:16.407Z,77.98
2018-12-16T18:11:42.480Z,78.06
2018-12-16T18:14:08.521Z,78.21
2018-12-16T18:16:34.695Z,77.90
2018-12-16T18:19:00.808Z,78.07
2018-12-16T18:21:26.866Z,78.17
2018-12-16T18:23:52.984Z,77.84
2018-12-16T18:26:19.051Z,78.00
2018-12-16T18:28:45.099Z,77.86
2018-12-16T18:31:11.390Z,78.07
2018-12-16T18:33:37.397Z,78.00
2018-12-16T18:36:03.547Z,77.71
2018-12-16T18:38:29.860Z,77.69
2018-12-16T18:40:55.952Z,77.83
2018-12-16T18:43:22.001Z,77.77
2018-12-16T18:45:48.268Z,77.78
2018-12-16T18:48:14.314Z,77.84
2018-12-16T18:50:40.340Z,77.75
2018-12-16T18:53:06.669Z,77.61
2018-12-16T18:55:32.719Z,77.62
2018-12-16T18:57:58.776Z,77.67
2018-12-16T19:00:25.011Z,77.51
2018-12-16T19:02:51.793Z,77.72
2018-12-16T19:05:18.093Z,77.54
2018-12-16T19:07:44.890Z,77.55
2018-12-16T19:10:11.055Z,77.39
2018-12-16T19:12:37.100Z,77.37
2018-12-16T19:15:04.949Z,77.51
2018-12-16T19:17:30.996Z,77.36
2018-12-16T19:19:57.049Z,77.33
2018-12-16T19:22:23.168Z,77.29
2018-12-16T19:24:49.241Z,77.19
2018-12-16T19:27:15.289Z,77.29
2018-12-16T19:29:41.506Z,77.11
2018-12-16T19:32:07.738Z,77.19
2018-12-16T19:34:33.822Z,77.30
2018-12-16T19:37:00.003Z,77.19
2018-12-16T19:39:26.103Z,77.12
2018-12-16T19:41:52.157Z,77.25
2018-12-16T19:44:18.392Z,77.16
2018-12-16T19:46:44.425Z,77.02
2018-12-16T19:49:10.473Z,76.94
2018-12-16T19:51:36.834Z,76.77
2018-12-16T19:54:02.917Z,76.79
2018-12-16T19:56:28.981Z,76.91
2018-12-16T19:58:55.502Z,76.83
2018-12-16T20:01:21.623Z,76.70
2018-12-16T20:03:53.668Z,76.63
2018-12-16T20:06:25.888Z,76.72
2018-12-16T20:08:52.004Z,76.71
2018-12-16T20:11:18.060Z,76.63
2018-12-16T20:13:44.248Z,76.69
2018-12-16T20:16:10.312Z,76.51
2018-12-16T20:18:36.375Z,76.69
2018-12-16T20:21:02.624Z,76.73
2018-12-16T20:23:28.655Z,76.53
2018-12-16T20:25:54.700Z,76.52
2018-12-16T20:28:20.926Z,76.55
2018-12-16T20:30:47.011Z,76.44
2018-12-16T20:33:13.055Z,76.49
2018-12-16T20:35:39.266Z,76.50
2018-12-16T20:38:05.429Z,76.47
2018-12-16T20:40:31.734Z,76.49
2018-12-16T20:42:57.913Z,76.23
2018-12-16T20:45:23.974Z,76.34
2018-12-16T20:47:50.018Z,76.42
2018-12-16T20:50:16.151Z,76.23
2018-12-16T20:52:42.415Z,76.28
2018-12-16T20:55:08.501Z,76.24
2018-12-16T20:57:34.696Z,76.20
2018-12-16T21:00:00.748Z,76.09
2018-12-16T21:02:26.937Z,76.02
2018-12-16T21:04:53.250Z,76.05
2018-12-16T21:07:19.287Z,75.98
2018-12-16T21:09:45.538Z,76.01
2018-12-16T21:12:17.895Z,75.86
2018-12-16T21:20:56.307Z,75.69
2018-12-16T21:23:22.543Z,75.87
2018-12-16T21:25:48.824Z,75.82
2018-12-16T21:28:14.910Z,75.56
2018-12-16T21:30:41.147Z,75.60
2018-12-16T21:33:07.214Z,75.62
2018-12-16T21:35:33.273Z,75.77
2018-12-16T21:37:59.512Z,75.51
2018-12-16T21:40:25.577Z,75.67
2018-12-16T21:42:51.934Z,75.67
2018-12-16T21:45:18.116Z,75.72
2018-12-16T21:47:44.184Z,75.53
2018-12-16T21:50:10.305Z,75.58
2018-12-16T21:52:36.459Z,75.40
2018-12-16T21:55:03.210Z,75.44
2018-12-16T21:57:33.045Z,75.43
2018-12-16T21:59:59.428Z,75.57
2018-12-16T22:02:25.561Z,75.45
2018-12-16T22:04:51.638Z,75.31
2018-12-16T22:07:17.746Z,75.26
2018-12-16T22:09:44.714Z,75.13
2018-12-16T22:12:10.919Z,75.10
2018-12-16T22:14:37.085Z,75.12
2018-12-16T22:17:03.152Z,75.04
2018-12-16T22:19:29.319Z,75.23
2018-12-16T22:21:55.552Z,75.08
2018-12-16T22:24:21.619Z,74.87
2018-12-16T22:26:47.625Z,74.91
2018-12-16T22:29:13.862Z,74.92
2018-12-16T22:31:39.936Z,75.04
2018-12-16T22:34:05.986Z,74.84
2018-12-16T22:36:32.225Z,74.95
2018-12-16T22:38:58.279Z,74.73
2018-12-16T22:41:24.482Z,74.79
2018-12-16T22:43:51.035Z,74.65
2018-12-16T22:46:17.126Z,74.60
2018-12-16T22:48:43.180Z,74.72
2018-12-16T22:51:09.388Z,74.55
2018-12-16T22:53:35.480Z,74.39
2018-12-16T22:56:01.550Z,74.47
2018-12-16T22:58:27.771Z,74.47
2018-12-16T23:01:01.522Z,74.43
2018-12-16T23:03:27.570Z,74.50
2018-12-16T23:05:53.908Z,74.47
2018-12-16T23:08:19.972Z,74.34
2018-12-16T23:10:45.991Z,74.32
2018-12-16T23:13:12.530Z,74.51
2018-12-16T23:15:38.818Z,74.30
2018-12-16T23:18:04.926Z,74.18
2018-12-16T23:20:31.180Z,74.19
2018-12-16T23:22:57.237Z,74.11
2018-12-16T23:25:23.446Z,74.33
2018-12-16T23:27:54.165Z,74.43
2018-12-16T23:30:18.065Z,74.30
2018-12-16T23:32:44.184Z,74.08
2018-12-16T23:35:10.417Z,74.18
2018-12-16T23:37:36.718Z,74.17
2018-12-16T23:40:04.033Z,74.07
2018-12-16T23:42:30.454Z,74.42
2018-12-16T23:44:57.288Z,74.07
2018-12-16T23:47:23.346Z,74.37
2018-12-16T23:49:49.679Z,74.32
2018-12-16T23:52:15.773Z,74.04
2018-12-16T23:54:41.825Z,74.12
2018-12-16T23:57:08.079Z,74.20
2018-12-16T23:59:34.190Z,74.17
